2hp Motors Export from India

2hp Motors

2hp Motors export data

Date HS Code Product Description Origin Port Destination Port Quantity Value (INR in Million) Unit Per Unit (INR)
2016-04-18 85014010 ELECTRIC MOTOR 1/2HP, 1050 RPM, 208-230V, 60/50HZ, 1 PHASE Faridabad Memphis 840 2.0185 NOS 2403.0
2016-04-19 85014010 ELECTRIC MOTOR 1/2HP, 1050 RPM, 208-230V, 60/50HZ, 1 PHASE Faridabad Memphis 1260 3.0278 NOS 2403.0
2016-04-19 85014010 ELECTRIC MOTOR 1/2HP,1075RPM, 115V,60HZ,1 PHASE Faridabad Memphis 256 0.474 NOS 1851.0
2016-04-20 84659500 PILLAR TYPE GENERAL HEAVY DUTY DRILL MACHINE WITH ELECTRIC MOTOR 2HP, 3PHASE, 440VOLTS MODEL 38/378 PPD Nhava Sheva Sea Maputo 1 0.0599 NOS 59875.0
2016-04-21 85014010 ELECTRIC MOTOR 1/2HP, 1050 RPM, 208-230V, 60/50HZ, 1 PHASE Faridabad Memphis 420 1.0093 NOS 2403.0
2016-04-21 85014010 ELECTRIC MOTOR 1/2HP, 1050 RPM, 208-230V, 60/50HZ, 1 PHASE Faridabad Memphis 2240 5.3828 NOS 2403.0
2016-04-22 84741090 SIVTEK VIBRO SEPARATOR GS 60 SS304SINGLE DECK WITH HOLLOW SCREEN RING 8#2HP IP 55 MOTOR & MESH DEBLINDING KIT Nhava Sheva Sea Colombo 1 0.3595 NOS 359466.0
2016-04-22 84484990 SPARE PARTS & ACCESSORIES FOR TEXTILE INDUSTRY 2HP FOOT MOUNTED MOTOR Nhava Sheva Sea Djibouti 1 0.008 NOS 8028.0
2016-04-22 85014010 ELECTRIC MOTOR 1/2HP, 1050 RPM, 208-230V, 60/50HZ, 1 PHASE Faridabad Memphis 2100 5.0463 NOS 2403.0
2016-04-23 85014010 ELECTRIC MOTOR 1/2HP, 1050 RPM, 208-230V, 60/50HZ, 1 PHASE Faridabad Memphis 560 1.3467 NOS 2404.0
2016-04-23 85015290 ELECTRIC MOTOR, 2HP, 945RPM, V400 (=10%) 50HZ, 3PHASE MODEL NF380 Delhi Air Cargo BAHRAIN 108 0.8221 NOS 7612.0
2016-04-25 84137010 (CROMPTON WATER PUMPS) SUBMERSBLE PUMP 2HP,1PH (SS MOTOR BODY) MODEL: STPM22(1PH) Raxaul Birgunj 5 0.0516 NOS 10320.0
2016-04-25 85014010 ELECTRIC MOTOR 1/2HP, 1050RPM, 208-230V,60/50HZ, 1 PHASE Faridabad Memphis 700 1.6834 NOS 2404.0
2016-04-25 85014010 ELECTRIC MOTOR 1/2HP, 1050RPM, 208-230V,60/50HZ, 1PHASE Faridabad Memphis 1540 3.7035 NOS 2404.0
2016-04-26 85011019 ELECTRIC MOTOR 2HP 3PHASE (Electric motors and generators)(ASPERINV) Mundra Tema 2 0.0158 NOS 7896.0
2016-04-27 84378010 COMMERCIAL FLOUR MILL 2 IN 1 2HP MOTOR Chennai Air Cargo KUALA LUMPUR - INT'L 1 0.0252 NOS 25200.0
2016-04-27 84378090 CAPITAL MACHINERY & ACCESSORIES FORRICE AUTOMATIC MILL PLANT:MASTER PLANSHIFTER WITH 2HP MOTOR-5TPH (A.P.I.) Petrapole Road BENAPOLE 1 0.2299 PCS 229892.0
2016-04-27 85014090 2HP 1PH 1440RPM FOOT MOUNTED ELE MOTOR Raxaul Birgunj 20 0.1 NOS 5000.0
2016-04-28 84293000 COCONUT SCRAPPER MACHINE FITTED WITH1/2HP SINGLE PHASE MOTOR SINGLE SIDE SCRAPERMODEL FULLY SSINCLUSING ALL ACCESSORIES Tuticorin ICD Jebel Ali 1 0.0103 NOS 10278.0
2016-04-28 85014010 ELECTRIC MOTOR 1/2HP, 1050 RPM, 208-230V, 60/50HZ, 1 PHASE Faridabad Memphis 120 0.2944 NOS 2453.0
2016-04-28 85014010 ELECTRIC MOTOR 1/2HP,1075RPM, 115V,60HZ,1 PHASE Faridabad Memphis 256 0.4744 NOS 1853.0
2016-04-28 85015290 ELECTRIC MOTOR, 2HP, 945RPM, V 400(+/- 10 PERCENT ) 50HZ, 3PHASE Faridabad Bahrain 78 0.5938 NOS 7612.0
2016-04-29 85014010 ELECTRIC MOTOR 1/2HP, 1050 RPM, 208-230V, 60/50HZ, 1 PHASE Faridabad Memphis 280 0.6734 NOS 2404.0
2016-04-29 85014010 ELECTRIC MOTOR 1/2HP,1075RPM, 115V,60HZ,1 PHASE Faridabad Memphis 256 0.4744 NOS 1853.0
2016-04-30 85014010 ELECTRIC MOTOR 1/2HP, 1050 RPM, 208-230V, 60/50HZ, 1 PHASE Faridabad Memphis 140 0.3367 NOS 2404.0
2016-05-02 85094010 20LTR COMMERICAL TILTING COCOA GRINDER WITH 2HP SINGLE PHASE MOTOR FITTED WITH SHANTHI GEAR BOX - KITCHEN EQUIPMENT Coimbatore - Irugur ICD Praha 1 0.0674 NOS 67365.0
2016-05-02 85014010 ELECTRIC MOTOR 1/2HP,1075RPM, 115V,60HZ,1 PHASE Faridabad Memphis 640 1.1859 NOS 1853.0
2016-05-03 85014010 ELECTRIC MOTOR 1/2HP,1075RPM, 115V,60HZ,1 PHASE Faridabad Memphis 512 0.9487 NOS 1853.0
2016-05-04 85014010 ELECTRIC MOTOR 1/2HP, 1050 RPM, 208-230V, 60/50HZ, 1 PHASE Faridabad Memphis 560 1.3467 NOS 2404.0
2016-05-04 85014010 ELECTRIC MOTOR 1/2HP,1075RPM, 115V,60HZ,1 PHASE Faridabad Memphis 640 1.1859 NOS 1853.0
2016-05-07 85014010 ELECTRIC MOTOR 1/2HP, 1050 RPM, 208-230V, 60/50HZ, 1 PHASE Faridabad Memphis 1400 3.3668 NOS 2404.0
2016-05-07 85014010 ELECTRIC MOTOR 1/2HP, 1050RPM, 208-230V,60/50HZ, 1 PHASE Faridabad Memphis 980 2.3567 NOS 2404.0
2016-05-07 85014010 ELECTRIC MOTOR 1/2HP, 1075RPM, 115V, 60HZ, 1 PHASE Faridabad Memphis 256 0.4744 NOS 1853.0
2016-05-07 85014010 ELECTRIC MOTOR 1/2HP, 860RPM, 208-230V,50HZ, 1 PHASE Faridabad Jeddah 1232 3.1412 NOS 2549.0
2016-05-07 85014010 ELECTRIC MOTOR 1/2HP, 950RPM/3SPD 208-230V, 50HZ, 1 PHASE Faridabad Jeddah 320 1.2135 NOS 3792.0
2016-05-09 85014010 ELECTRIC MOTOR 1/2HP, 1050 RPM, 208-230V, 60/50HZ, 1 PHASE Faridabad Memphis 1960 4.7314 NOS 2413.0
2016-05-09 85014010 ELECTRIC MOTOR 1/2HP,1075RPM, 115V,60HZ,1 PHASE Faridabad Memphis 256 0.4762 NOS 1860.0
2016-05-10 84798970 PHARMA MACHINERY: HOMOGENISER WITH 2HP MOTOR & VARIABLE SPEED DRIVE WITH STAND WITH 2 TANK 100 & 200 LTRS. WITH ACCESSOR Nhava Sheva Sea Tema 1 0.2861 SET 286118.0
2016-05-10 85014010 ELECTRIC MOTOR 1/2HP, 1050 RPM, 208-230V, 60/50HZ, 1 PHASE Faridabad Memphis 700 1.6898 NOS 2413.0
2016-05-11 85014010 ELECTRIC MOTOR 1/2HP, 1050 RPM, 208-230V, 60/50HZ, 1 PHASE Faridabad Memphis 1120 2.7036 NOS 2413.0
2016-05-12 85014010 ELECTRIC MOTOR 1/2HP, 1050 RPM, 208-230V, 60/50HZ, 1 PHASE Faridabad Memphis 2800 6.7591 NOS 2413.0
2016-05-12 85014010 ELECTRIC MOTOR 1/2HP,1075RPM, 115V,60HZ,1 PHASE Faridabad Memphis 320 0.5952 NOS 1860.0
2016-05-13 85014010 ELECTRIC MOTOR 1/2HP, 1050 RPM, 208-230V, 60/50HZ, 1 PHASE Faridabad Memphis 700 1.6898 NOS 2413.0
2016-05-14 84509090 LAUNDRY MACHINERY SPARE PARTS 2HP,440v,3PHASE 1400rpm MOTOR Tuticorin ICD Dar Es Salaam 1 0.0128 NOS 12774.0
2016-05-16 85014010 ELECTRIC MOTOR 1/2HP, 1050 RPM, 208-230V, 60/50HZ, 1 PHASE Faridabad Memphis 1120 2.7036 NOS 2413.0
2016-05-16 85014010 ELECTRIC MOTOR 1/2HP, 1075RPM, 115V, 60HZ, 1 PHASE Faridabad Memphis 512 0.9523 NOS 1860.0
2016-05-16 85014010 SINGLE PHASE MOTOR 1/2HP, 1050RPM, 208-230V, 60/50HZ, 1 PHASE Faridabad Memphis 1820 4.3934 NOS 2413.0
2016-05-17 85014010 ELECTRIC MOTOR 1/2HP, 1050 RPM, 208-230V, 60/50HZ, 1 PHASE Faridabad Memphis 3220 7.773 NOS 2413.0
2016-05-17 85014010 ELECTRIC MOTOR 1/2HP,1075RPM, 115V,60HZ,1 PHASE Faridabad Memphis 128 0.2381 NOS 1860.0
2016-05-18 85014010 ELECTRIC MOTOR 1/2HP,1075RPM, 115V,60HZ,1 PHASE Faridabad Memphis 256 0.4762 NOS 1860.0
2016-05-18 85014010 ELECTRIC MOTOR 1/2HP, 1050 RPM, 208-230V, 60/50HZ, 1 PHASE Faridabad Memphis 700 1.6898 NOS 2413.0
2016-05-19 85014010 ELECTRIC MOTOR 1/2HP, 1050 RPM, 208-230V, 60/50HZ, 1 PHASE Faridabad Memphis 2800 6.7591 NOS 2413.0
2016-05-20 84137010 SUBMERSIBLE PUMP SET: MOTOR WITH PUMP HEAD & CONTROLLER, 2HP RS1800 MODEL: R40807, RP/SM/83L, Ahmedabad ASUNCION 1 5.0E-4 NOS 464.0
2016-05-20 85014010 ELECTRIC MOTOR 1/2HP, 1050 RPM, 208-230V, 60/50HZ, 1 PHASE Faridabad Memphis 1960 4.7314 NOS 2413.0
2016-05-23 84378090 ELECTRIC DRYER THRER STAGE 32 UPDE WIREMECHED COVERED BELT MAIN CONTROL DRIVE BY 2HP MOTOR & GEAR BOX DRIVEN ON CHAIN A Raxaul Birgunj 1 0.285 NOS 285000.0
2016-05-23 85014010 ELECTRIC MOTOR 1/2HP, 1050 RPM, 208-230V, 60/50HZ, 1 PHASE Faridabad Memphis 3500 8.4732 NOS 2420.0
2016-05-23 85014010 ELECTRIC MOTOR 1/2HP,1075RPM, 115V,60HZ,1 PHASE Faridabad Memphis 384 0.717 NOS 1867.0
2016-05-23 85014010 ELECTRIC MOTOR, 1/2HP, 915RPM, 220-240V50HZ, SINGLE PHASE Faridabad Bahrain 320 1.0102 NOS 3156.0
2016-05-24 85014010 ELECTRIC MOTOR 1/2HP, 1050 RPM, 208-230V, 60/50HZ, 1 PHASE Faridabad Memphis 700 1.6962 NOS 2423.0
2016-05-24 85014010 ELECTRIC MOTOR 1/2HP,1075RPM, 115V,60HZ,1 PHASE Faridabad Memphis 448 0.8365 NOS 1867.0
2016-05-25 85011020 SUBMERSIBLE MOTORS - 4 WL 2HP SP CSCR E1-SS SC 230V WITH CONTROL PANEL Ahmedabad HOUSTON, TX 3 0.0143 NOS 4777.0
2016-05-25 85014010 ELECTRIC MOTOR 1/2HP, 1050 RPM, 208-230V, 60/50HZ, 1 PHASE Faridabad Memphis 2380 5.767 NOS 2423.0
2016-05-25 85014010 ELECTRIC MOTOR 1/2HP,1075RPM, 115V,60HZ,1 PHASE Faridabad Memphis 64 0.1195 NOS 1867.0
2016-05-26 85014010 ELECTRIC MOTOR 1/2HP, 1050 RPM, 208-230V, 60/50HZ, 1 PHASE Faridabad Memphis 420 1.0177 NOS 2423.0
2016-05-26 85014010 ELECTRIC MOTOR, 1/2HP, 1150RPM, 208-230V60HZ, SINGLE PHASE Faridabad Bahrain 120 0.2852 NOS 2376.0
2016-05-26 85014010 ELECTRIC MOTOR, 1/2HP, 915RPM, 220-240V50HZ, SINGLE PHASE Faridabad Bahrain 320 1.014 NOS 3168.0
2016-05-27 85014010 ELECTRIC MOTOR, 1/2HP, 915RPM, 220-240V50HZ, SINGLE PHASE Faridabad Bahrain 160 0.507 NOS 3168.0
2016-05-27 85044090 INDUSTRIAL AUTOMATION PARTS, AC MOTOR DRIVE 2HP 230S EL-B 3,PART NO.VFD015EL21A Delhi Air Cargo COLOMBO 131 0.0087 PCS 66.0
2016-05-28 84145930 CAT NO.30T2H6/30"TUBULAR TYPE MANCOOLERWITH 2HP/6P/380V/60HZ MOTOR( UNDER ARE) Kolkata Sea Dammam 10 0.3454 NOS 34540.0
2016-05-28 85014010 ELECTRIC MOTOR 1/2HP, 1050 RPM, 208-230V, 60/50HZ, 1 PHASE Faridabad Memphis 980 2.3746 NOS 2423.0

Related products

2hp Motors Trade Data - Indian Ports

S. No Product Product Code Quantity Value (INR in Million) Unit Origin Port Destination Port
PILLAR TYPE GENERAL HEAVY DUTY DRILL MACHINE WITH ELECTRIC MOTOR 2HP, 3PHASE, 440VOLTS MODEL 38/378 PPD 84659500 1 0.0599 NOS Nhava Sheva Sea Maputo
ELECTRIC MOTOR 1/2HP, 1050 RPM, 208-230V, 60/50HZ, 1 PHASE 85014010 1260 3.0278 NOS Faridabad Memphis
ELECTRIC MOTOR 1/2HP,1075RPM, 115V,60HZ,1 PHASE 85014010 256 0.474 NOS Faridabad Memphis
ELECTRIC MOTOR 1/2HP, 1050 RPM, 208-230V, 60/50HZ, 1 PHASE 85014010 840 2.0185 NOS Faridabad Memphis
CAPITAL MACHINERY FOR RICE MILL:RICEMULTI GRADER WITH MOTOR 2HP MODELRMG 125/3 (A.P.I.) 84378090 2 0.4648 PCS Petrapole Road BENAPOLE
(ELECTRIC MOTORS & GENERATOR) 1/2HP 4P B56 FOOT MTD (NEPAL) 85014010 70 0.1907 NOS Raxaul Birgunj
(ELECTRIC MOTORS & GENERATOR) 2HP 2P B56B3B14 NEEDLE VIBRATOR (NEPAL) 85014010 10 0.0381 NOS Raxaul Birgunj
(ELECTRIC MOTORS & GENERATOR) 2HP 2P B56FOOT MTD (NEPAL) 85014010 10 0.0474 NOS Raxaul Birgunj
(ELECTRIC MOTORS & GENERATOR) 2HP 4P 100S FOOT MTD WOOD (NEPAL) 85014010 100 0.6183 NOS Raxaul Birgunj
ELECTRIC MOTOR 1/2HP, 1050 RPM, 208-230V, 60/50HZ, 1 PHASE 85014010 2240 5.3828 NOS Faridabad Memphis
ELECTRIC MOTOR 1/2HP,1075RPM, 115V,60HZ,1 PHASE 85014010 704 1.3035 NOS Faridabad Memphis
PARTS OF MACHINERY FOR MANUFACTURE OF ASBOSTOS CEMENT PRODUCTS - PBL 2HP 42P -D95L4, 110RPM, B3 GEARED MOTOR. 84749000 2 0.0408 NOS Chennai Sea Colombo
PARTS OF MACHINERY FOR MANUFACTURE OF ASBOSTOS CEMENT PRODUCTS - PBL 2HP 53P -D90L4, 57RPM, B3 GEARED MOTOR 84749000 4 0.1041 NOS Chennai Sea Colombo
ELECTRIC MOTOR 1/2HP, 1050 RPM, 208-230V, 60/50HZ, 1 PHASE 85014010 280 0.6728 NOS Faridabad Memphis
ELECTRIC MOTOR 1/2HP, 1050 RPM, 208-230V, 60/50HZ, 1 PHASE 85014010 2380 5.7192 NOS Faridabad Memphis
MOTOR 2HP 85014090 1 0.0106 PCS Hyderabad Jebel Ali
KIRLOSKAR MAKE 2HP, 1450RPM MOTOR 85030090 1 0.011 PCS Raxaul Birgunj
2HP MOTOR PUMP 84133030 1 0.0116 NOS Noida-Dadri (ICD) Tema
ELECTRIC MOTOR 1/2HP, 1050 RPM, 208-230V, 60/50HZ, 1 PHASE 85014010 2100 5.077 NOS Faridabad Memphis
ELECTRIC MOTOR 1/2HP,1075RPM, 115V,60HZ,1 PHASE 85014010 64 0.1185 NOS Faridabad Memphis
(CROMPTON BRAND MOTOR GOODS) 2HP/1.5KW 2P, ND90S,415V,EFF2 85015210 10 0.0396 NOS Raxaul Birgunj
(CROMPTON BRAND MOTOR GOODS) 2HP/1.5KW 6P,ND100L,415V,EFF2 85015210 5 0.0278 NOS Raxaul Birgunj
INDIAN ORIGIN CAP.MACH.&ACC.FOR RICEAUTOM.MILL PLANT:2HP ABB MAKE MOTOR(A.P.I.) 84378090 1 0.0095 NOS Petrapole Road BENAPOLE

Looking to export 2hp Motors from India?

With end to end global trade solutions from Connect2India, we enable Indian SMEs to start and grow their business globally

The following graphs and table will provide data on 2hp Motors export based on different Indian ports, top importing ports and top export shipments of 2hp Motors from India.

There are about 31 top exporting ports in India which trade 2hp Motors from India, Faridabad exports the majority of 2hp Motors shipments from India with the share of 59.0% , followed by Nhava Sheva Sea with 10.0%.

Moving to top importing ports for 2hp Motors from India. Memphis port solely imports 294 shipments of 2hp Motors from India and holds the largest share of 50.0%.

Looking to arrange 2hp Motors export order to verified buyers across the globe?

Graphical representation for 2hp Motors export

2hp Motors - Recent export data

How connect2india can help you export 2hp Motors?

Connect2India can help you analyse 2hp Motors export data from India to all buying countries. Users can also find here 2hp Motors manufacturers, 2hp Motors exporters, global buyers etc. Our platform also helps you to figure out the right target market to export 2hp Motors and arrange export order, know about the procedure and formalities for export and help you in 2hp Motors shipment and logistics. Our trade experts are always available for any help regarding the export of 2hp Motors and its products. If you want more information, please get in touch with our trade experts here.

People Also Ask

Which is the most popular Indian port for 2hp Motors export?

Faridabad is the most popular port for 2hp Motors export from India

What are the top three export shipments of 2hp Motors traded from India?

Following are the top three export shipments of 2hp Motors traded from India :

  • ELECTRIC MOTOR 1/2HP, 1050 RPM, 208-230V, 60/50HZ, 1 PHASE
  • ELECTRIC MOTOR 1/2HP, 1050 RPM, 208-230V, 60/50HZ, 1 PHASE
  • ELECTRIC MOTOR 1/2HP,1075RPM, 115V,60HZ,1 PHASE